sensor_id;sensor_type;location;lat;lon;timestamp;P1;durP1;ratioP1;P2;durP2;ratioP2
19593;SDS011;9944;48.240;16.478;2024-02-21T00:03:58;6.65;;;1.38;;
19593;SDS011;9944;48.240;16.478;2024-02-21T00:08:02;3.75;;;1.38;;
19593;SDS011;9944;48.240;16.478;2024-02-21T00:12:06;3.85;;;1.90;;
19593;SDS011;9944;48.240;16.478;2024-02-21T00:16:10;2.30;;;1.30;;
19593;SDS011;9944;48.240;16.478;2024-02-21T00:20:15;4.88;;;1.67;;
19593;SDS011;9944;48.240;16.478;2024-02-21T00:24:19;2.38;;;1.50;;
19593;SDS011;9944;48.240;16.478;2024-02-21T00:28:22;3.67;;;1.50;;
19593;SDS011;9944;48.240;16.478;2024-02-21T00:32:25;3.67;;;1.85;;
19593;SDS011;9944;48.240;16.478;2024-02-21T00:36:30;3.42;;;1.50;;
19593;SDS011;9944;48.240;16.478;2024-02-21T00:40:33;5.05;;;1.60;;
19593;SDS011;9944;48.240;16.478;2024-02-21T00:44:38;3.70;;;1.77;;
19593;SDS011;9944;48.240;16.478;2024-02-21T00:48:41;4.75;;;1.45;;
19593;SDS011;9944;48.240;16.478;2024-02-21T00:52:46;2.20;;;1.40;;
19593;SDS011;9944;48.240;16.478;2024-02-21T00:56:50;5.57;;;1.75;;
19593;SDS011;9944;48.240;16.478;2024-02-21T01:00:53;2.00;;;1.33;;
19593;SDS011;9944;48.240;16.478;2024-02-21T01:04:57;2.88;;;1.73;;
19593;SDS011;9944;48.240;16.478;2024-02-21T01:09:02;2.90;;;1.15;;
19593;SDS011;9944;48.240;16.478;2024-02-21T01:13:05;2.78;;;1.65;;
19593;SDS011;9944;48.240;16.478;2024-02-21T01:17:09;2.75;;;1.55;;
19593;SDS011;9944;48.240;16.478;2024-02-21T01:21:12;2.92;;;1.20;;
19593;SDS011;9944;48.240;16.478;2024-02-21T01:25:16;2.95;;;1.83;;
19593;SDS011;9944;48.240;16.478;2024-02-21T01:29:20;6.57;;;1.70;;
19593;SDS011;9944;48.240;16.478;2024-02-21T01:33:23;1.85;;;1.27;;
19593;SDS011;9944;48.240;16.478;2024-02-21T01:37:26;5.28;;;1.55;;
19593;SDS011;9944;48.240;16.478;2024-02-21T01:41:32;3.58;;;1.85;;
19593;SDS011;9944;48.240;16.478;2024-02-21T01:45:35;3.47;;;1.35;;
19593;SDS011;9944;48.240;16.478;2024-02-21T01:49:38;3.53;;;1.60;;
19593;SDS011;9944;48.240;16.478;2024-02-21T01:53:43;4.00;;;1.33;;
19593;SDS011;9944;48.240;16.478;2024-02-21T01:57:49;2.63;;;1.40;;
19593;SDS011;9944;48.240;16.478;2024-02-21T02:01:52;2.20;;;1.30;;
19593;SDS011;9944;48.240;16.478;2024-02-21T02:05:57;3.05;;;1.13;;
19593;SDS011;9944;48.240;16.478;2024-02-21T02:10:01;4.60;;;1.30;;
19593;SDS011;9944;48.240;16.478;2024-02-21T02:14:06;4.93;;;1.38;;
19593;SDS011;9944;48.240;16.478;2024-02-21T02:18:09;3.05;;;1.58;;
19593;SDS011;9944;48.240;16.478;2024-02-21T02:22:14;4.40;;;1.65;;
19593;SDS011;9944;48.240;16.478;2024-02-21T02:26:24;3.67;;;1.55;;
19593;SDS011;9944;48.240;16.478;2024-02-21T02:30:27;3.67;;;1.38;;
19593;SDS011;9944;48.240;16.478;2024-02-21T02:34:31;3.92;;;1.67;;
19593;SDS011;9944;48.240;16.478;2024-02-21T02:38:34;2.05;;;1.50;;
19593;SDS011;9944;48.240;16.478;2024-02-21T02:42:39;5.10;;;1.92;;
19593;SDS011;9944;48.240;16.478;2024-02-21T02:46:42;5.90;;;1.63;;
19593;SDS011;9944;48.240;16.478;2024-02-21T02:50:45;3.92;;;1.17;;
19593;SDS011;9944;48.240;16.478;2024-02-21T02:54:50;4.70;;;1.60;;
19593;SDS011;9944;48.240;16.478;2024-02-21T02:58:55;2.97;;;1.60;;
19593;SDS011;9944;48.240;16.478;2024-02-21T03:02:58;2.10;;;1.50;;
19593;SDS011;9944;48.240;16.478;2024-02-21T03:07:01;3.45;;;1.60;;
19593;SDS011;9944;48.240;16.478;2024-02-21T03:11:05;2.75;;;1.60;;
19593;SDS011;9944;48.240;16.478;2024-02-21T03:15:11;6.03;;;1.48;;
19593;SDS011;9944;48.240;16.478;2024-02-21T03:19:16;4.07;;;1.13;;
19593;SDS011;9944;48.240;16.478;2024-02-21T03:23:19;4.13;;;1.52;;
19593;SDS011;9944;48.240;16.478;2024-02-21T03:27:23;5.20;;;1.50;;
19593;SDS011;9944;48.240;16.478;2024-02-21T03:31:27;2.90;;;1.33;;
19593;SDS011;9944;48.240;16.478;2024-02-21T03:35:33;4.60;;;1.30;;
19593;SDS011;9944;48.240;16.478;2024-02-21T03:39:36;3.78;;;1.70;;
19593;SDS011;9944;48.240;16.478;2024-02-21T03:43:40;2.60;;;1.38;;
19593;SDS011;9944;48.240;16.478;2024-02-21T03:47:44;3.28;;;1.33;;
19593;SDS011;9944;48.240;16.478;2024-02-21T03:51:48;2.20;;;1.30;;
19593;SDS011;9944;48.240;16.478;2024-02-21T03:55:51;3.35;;;1.50;;
19593;SDS011;9944;48.240;16.478;2024-02-21T03:59:55;5.80;;;1.30;;
19593;SDS011;9944;48.240;16.478;2024-02-21T04:03:59;4.18;;;1.55;;
19593;SDS011;9944;48.240;16.478;2024-02-21T04:08:04;6.00;;;1.30;;
19593;SDS011;9944;48.240;16.478;2024-02-21T04:12:07;3.85;;;1.30;;
19593;SDS011;9944;48.240;16.478;2024-02-21T04:16:11;5.25;;;1.65;;
19593;SDS011;9944;48.240;16.478;2024-02-21T04:20:16;6.45;;;1.77;;
19593;SDS011;9944;48.240;16.478;2024-02-21T04:24:20;4.82;;;1.55;;
19593;SDS011;9944;48.240;16.478;2024-02-21T04:28:23;3.92;;;1.60;;
19593;SDS011;9944;48.240;16.478;2024-02-21T04:32:27;4.55;;;1.63;;
19593;SDS011;9944;48.240;16.478;2024-02-21T04:36:31;3.40;;;1.63;;
19593;SDS011;9944;48.240;16.478;2024-02-21T04:40:34;2.72;;;1.58;;
19593;SDS011;9944;48.240;16.478;2024-02-21T04:44:38;5.13;;;1.83;;
19593;SDS011;9944;48.240;16.478;2024-02-21T04:48:41;2.05;;;1.45;;
19593;SDS011;9944;48.240;16.478;2024-02-21T04:52:46;7.63;;;1.98;;
19593;SDS011;9944;48.240;16.478;2024-02-21T04:56:50;3.35;;;1.58;;
19593;SDS011;9944;48.240;16.478;2024-02-21T05:00:54;5.95;;;1.42;;
19593;SDS011;9944;48.240;16.478;2024-02-21T05:04:57;3.47;;;1.83;;
19593;SDS011;9944;48.240;16.478;2024-02-21T05:09:03;2.97;;;1.50;;
19593;SDS011;9944;48.240;16.478;2024-02-21T05:13:06;4.50;;;1.60;;
19593;SDS011;9944;48.240;16.478;2024-02-21T05:17:10;5.40;;;1.65;;
19593;SDS011;9944;48.240;16.478;2024-02-21T05:21:14;5.00;;;1.77;;
19593;SDS011;9944;48.240;16.478;2024-02-21T05:25:18;2.60;;;1.63;;
19593;SDS011;9944;48.240;16.478;2024-02-21T05:29:22;4.95;;;1.85;;
19593;SDS011;9944;48.240;16.478;2024-02-21T05:33:25;4.85;;;1.88;;
19593;SDS011;9944;48.240;16.478;2024-02-21T05:37:29;6.88;;;1.65;;
19593;SDS011;9944;48.240;16.478;2024-02-21T05:41:33;4.90;;;1.70;;
19593;SDS011;9944;48.240;16.478;2024-02-21T05:45:37;4.22;;;1.75;;
19593;SDS011;9944;48.240;16.478;2024-02-21T05:49:40;5.68;;;1.70;;
19593;SDS011;9944;48.240;16.478;2024-02-21T05:53:44;5.45;;;1.65;;
19593;SDS011;9944;48.240;16.478;2024-02-21T06:02:15;3.45;;;1.60;;
19593;SDS011;9944;48.240;16.478;2024-02-21T06:06:18;5.50;;;1.63;;
19593;SDS011;9944;48.240;16.478;2024-02-21T06:10:23;5.03;;;1.20;;
19593;SDS011;9944;48.240;16.478;2024-02-21T06:14:28;3.38;;;1.30;;
19593;SDS011;9944;48.240;16.478;2024-02-21T06:18:31;3.22;;;1.75;;
19593;SDS011;9944;48.240;16.478;2024-02-21T06:22:34;3.05;;;1.50;;
19593;SDS011;9944;48.240;16.478;2024-02-21T06:26:38;4.55;;;1.48;;
19593;SDS011;9944;48.240;16.478;2024-02-21T06:30:44;5.10;;;1.80;;
19593;SDS011;9944;48.240;16.478;2024-02-21T06:34:48;4.70;;;1.23;;
19593;SDS011;9944;48.240;16.478;2024-02-21T06:38:51;3.60;;;1.35;;
19593;SDS011;9944;48.240;16.478;2024-02-21T06:42:55;4.13;;;1.63;;
19593;SDS011;9944;48.240;16.478;2024-02-21T06:46:59;4.90;;;1.95;;
19593;SDS011;9944;48.240;16.478;2024-02-21T06:51:03;2.38;;;1.40;;
19593;SDS011;9944;48.240;16.478;2024-02-21T06:55:07;2.45;;;1.42;;
19593;SDS011;9944;48.240;16.478;2024-02-21T06:59:11;4.22;;;1.40;;
19593;SDS011;9944;48.240;16.478;2024-02-21T07:03:18;2.08;;;1.25;;
19593;SDS011;9944;48.240;16.478;2024-02-21T07:07:22;4.07;;;1.27;;
19593;SDS011;9944;48.240;16.478;2024-02-21T07:11:25;3.72;;;1.15;;
19593;SDS011;9944;48.240;16.478;2024-02-21T07:15:29;3.67;;;1.30;;
19593;SDS011;9944;48.240;16.478;2024-02-21T07:19:33;2.63;;;1.60;;
19593;SDS011;9944;48.240;16.478;2024-02-21T07:23:40;5.97;;;1.40;;
19593;SDS011;9944;48.240;16.478;2024-02-21T07:27:44;3.70;;;1.40;;
19593;SDS011;9944;48.240;16.478;2024-02-21T07:31:48;6.90;;;1.38;;
19593;SDS011;9944;48.240;16.478;2024-02-21T07:35:54;3.00;;;1.30;;
19593;SDS011;9944;48.240;16.478;2024-02-21T07:39:58;3.13;;;1.10;;
19593;SDS011;9944;48.240;16.478;2024-02-21T07:44:01;5.57;;;1.25;;
19593;SDS011;9944;48.240;16.478;2024-02-21T07:48:05;4.03;;;1.27;;
19593;SDS011;9944;48.240;16.478;2024-02-21T07:52:10;2.78;;;1.40;;
19593;SDS011;9944;48.240;16.478;2024-02-21T07:56:14;2.50;;;1.02;;
19593;SDS011;9944;48.240;16.478;2024-02-21T08:00:20;3.38;;;1.00;;
19593;SDS011;9944;48.240;16.478;2024-02-21T08:04:23;1.60;;;1.10;;
19593;SDS011;9944;48.240;16.478;2024-02-21T08:08:28;2.58;;;1.05;;
19593;SDS011;9944;48.240;16.478;2024-02-21T08:12:31;1.48;;;1.05;;
19593;SDS011;9944;48.240;16.478;2024-02-21T08:16:34;2.47;;;0.95;;
19593;SDS011;9944;48.240;16.478;2024-02-21T08:20:38;1.60;;;1.13;;
19593;SDS011;9944;48.240;16.478;2024-02-21T08:24:42;2.05;;;1.20;;
19593;SDS011;9944;48.240;16.478;2024-02-21T08:28:46;1.75;;;1.00;;
19593;SDS011;9944;48.240;16.478;2024-02-21T08:32:49;5.18;;;1.52;;
19593;SDS011;9944;48.240;16.478;2024-02-21T08:36:52;3.60;;;1.13;;
19593;SDS011;9944;48.240;16.478;2024-02-21T08:40:57;4.30;;;1.17;;
19593;SDS011;9944;48.240;16.478;2024-02-21T08:45:00;2.40;;;1.10;;
19593;SDS011;9944;48.240;16.478;2024-02-21T08:49:03;2.53;;;1.00;;
19593;SDS011;9944;48.240;16.478;2024-02-21T08:53:07;5.15;;;1.25;;
19593;SDS011;9944;48.240;16.478;2024-02-21T08:57:11;2.42;;;1.20;;
19593;SDS011;9944;48.240;16.478;2024-02-21T09:01:16;3.25;;;1.05;;
19593;SDS011;9944;48.240;16.478;2024-02-21T09:05:19;3.80;;;1.25;;
19593;SDS011;9944;48.240;16.478;2024-02-21T09:09:23;1.00;;;0.77;;
19593;SDS011;9944;48.240;16.478;2024-02-21T09:13:31;3.00;;;1.33;;
19593;SDS011;9944;48.240;16.478;2024-02-21T09:17:35;1.45;;;0.98;;
19593;SDS011;9944;48.240;16.478;2024-02-21T09:21:38;5.07;;;1.40;;
19593;SDS011;9944;48.240;16.478;2024-02-21T09:25:41;2.33;;;0.93;;
19593;SDS011;9944;48.240;16.478;2024-02-21T09:29:46;4.22;;;1.20;;
19593;SDS011;9944;48.240;16.478;2024-02-21T09:33:49;2.42;;;1.05;;
19593;SDS011;9944;48.240;16.478;2024-02-21T09:37:52;1.90;;;1.02;;
19593;SDS011;9944;48.240;16.478;2024-02-21T09:41:58;1.35;;;0.93;;
19593;SDS011;9944;48.240;16.478;2024-02-21T09:46:03;1.23;;;1.13;;
19593;SDS011;9944;48.240;16.478;2024-02-21T09:50:07;3.22;;;1.15;;
19593;SDS011;9944;48.240;16.478;2024-02-21T09:54:11;3.08;;;1.27;;
19593;SDS011;9944;48.240;16.478;2024-02-21T09:58:18;3.55;;;0.98;;
19593;SDS011;9944;48.240;16.478;2024-02-21T10:02:23;2.13;;;0.88;;
19593;SDS011;9944;48.240;16.478;2024-02-21T10:06:27;1.52;;;1.08;;
19593;SDS011;9944;48.240;16.478;2024-02-21T10:10:32;4.40;;;1.25;;
19593;SDS011;9944;48.240;16.478;2024-02-21T10:14:45;2.13;;;1.00;;
19593;SDS011;9944;48.240;16.478;2024-02-21T10:18:53;1.55;;;0.98;;
19593;SDS011;9944;48.240;16.478;2024-02-21T10:23:00;1.13;;;0.80;;
19593;SDS011;9944;48.240;16.478;2024-02-21T10:27:05;2.83;;;1.20;;
19593;SDS011;9944;48.240;16.478;2024-02-21T10:31:21;4.25;;;1.00;;
19593;SDS011;9944;48.240;16.478;2024-02-21T10:35:27;2.17;;;1.10;;
19593;SDS011;9944;48.240;16.478;2024-02-21T10:39:31;2.85;;;1.08;;
19593;SDS011;9944;48.240;16.478;2024-02-21T10:43:38;3.33;;;1.30;;
19593;SDS011;9944;48.240;16.478;2024-02-21T10:47:43;3.10;;;1.55;;
19593;SDS011;9944;48.240;16.478;2024-02-21T10:51:53;1.52;;;1.13;;
19593;SDS011;9944;48.240;16.478;2024-02-21T10:56:01;4.45;;;1.25;;
19593;SDS011;9944;48.240;16.478;2024-02-21T11:00:15;3.90;;;1.20;;
19593;SDS011;9944;48.240;16.478;2024-02-21T11:04:21;2.35;;;0.80;;
19593;SDS011;9944;48.240;16.478;2024-02-21T11:08:25;2.88;;;0.95;;
19593;SDS011;9944;48.240;16.478;2024-02-21T11:12:32;1.60;;;1.00;;
19593;SDS011;9944;48.240;16.478;2024-02-21T11:16:36;4.82;;;1.10;;
19593;SDS011;9944;48.240;16.478;2024-02-21T11:20:49;1.90;;;1.13;;
19593;SDS011;9944;48.240;16.478;2024-02-21T11:24:54;3.15;;;1.05;;
19593;SDS011;9944;48.240;16.478;2024-02-21T11:28:58;4.40;;;1.48;;
19593;SDS011;9944;48.240;16.478;2024-02-21T11:33:02;1.77;;;0.93;;
19593;SDS011;9944;48.240;16.478;2024-02-21T11:37:12;2.78;;;1.00;;
19593;SDS011;9944;48.240;16.478;2024-02-21T11:41:18;2.30;;;1.15;;
19593;SDS011;9944;48.240;16.478;2024-02-21T11:45:25;1.83;;;1.00;;
19593;SDS011;9944;48.240;16.478;2024-02-21T11:49:28;1.95;;;1.13;;
19593;SDS011;9944;48.240;16.478;2024-02-21T11:53:32;3.13;;;1.10;;
19593;SDS011;9944;48.240;16.478;2024-02-21T11:57:47;2.45;;;1.33;;
19593;SDS011;9944;48.240;16.478;2024-02-21T12:01:52;5.53;;;1.27;;
19593;SDS011;9944;48.240;16.478;2024-02-21T12:05:56;1.23;;;0.80;;
19593;SDS011;9944;48.240;16.478;2024-02-21T12:10:01;3.45;;;1.02;;
19593;SDS011;9944;48.240;16.478;2024-02-21T12:14:06;3.28;;;1.10;;
19593;SDS011;9944;48.240;16.478;2024-02-21T12:18:10;1.83;;;0.90;;
19593;SDS011;9944;48.240;16.478;2024-02-21T12:22:15;2.58;;;1.15;;
19593;SDS011;9944;48.240;16.478;2024-02-21T12:26:19;5.63;;;1.33;;
19593;SDS011;9944;48.240;16.478;2024-02-21T12:30:24;2.60;;;1.25;;
19593;SDS011;9944;48.240;16.478;2024-02-21T12:34:28;3.13;;;0.90;;
19593;SDS011;9944;48.240;16.478;2024-02-21T12:38:49;3.20;;;0.95;;
19593;SDS011;9944;48.240;16.478;2024-02-21T12:42:52;2.25;;;0.73;;
19593;SDS011;9944;48.240;16.478;2024-02-21T12:46:57;3.22;;;0.98;;
19593;SDS011;9944;48.240;16.478;2024-02-21T12:51:01;1.42;;;1.00;;
19593;SDS011;9944;48.240;16.478;2024-02-21T12:55:04;2.13;;;1.10;;
19593;SDS011;9944;48.240;16.478;2024-02-21T12:59:08;3.50;;;1.00;;
19593;SDS011;9944;48.240;16.478;2024-02-21T13:03:13;2.15;;;0.90;;
19593;SDS011;9944;48.240;16.478;2024-02-21T13:07:18;2.35;;;1.05;;
19593;SDS011;9944;48.240;16.478;2024-02-21T13:11:21;1.65;;;0.63;;
19593;SDS011;9944;48.240;16.478;2024-02-21T13:15:29;1.67;;;0.80;;
19593;SDS011;9944;48.240;16.478;2024-02-21T13:19:33;1.80;;;1.00;;
19593;SDS011;9944;48.240;16.478;2024-02-21T13:23:37;3.70;;;1.00;;
19593;SDS011;9944;48.240;16.478;2024-02-21T13:27:40;2.10;;;1.00;;
19593;SDS011;9944;48.240;16.478;2024-02-21T13:31:43;1.67;;;0.90;;
19593;SDS011;9944;48.240;16.478;2024-02-21T13:35:48;2.45;;;0.80;;
19593;SDS011;9944;48.240;16.478;2024-02-21T13:39:52;1.50;;;0.82;;
19593;SDS011;9944;48.240;16.478;2024-02-21T13:43:55;0.80;;;0.70;;
19593;SDS011;9944;48.240;16.478;2024-02-21T13:47:59;2.63;;;0.80;;
19593;SDS011;9944;48.240;16.478;2024-02-21T13:52:03;0.98;;;0.70;;
19593;SDS011;9944;48.240;16.478;2024-02-21T13:56:07;1.25;;;0.90;;
19593;SDS011;9944;48.240;16.478;2024-02-21T14:00:11;1.30;;;0.80;;
19593;SDS011;9944;48.240;16.478;2024-02-21T14:04:15;1.88;;;0.90;;
19593;SDS011;9944;48.240;16.478;2024-02-21T14:08:20;1.85;;;0.82;;
19593;SDS011;9944;48.240;16.478;2024-02-21T14:12:24;2.40;;;0.77;;
19593;SDS011;9944;48.240;16.478;2024-02-21T14:16:27;3.58;;;1.13;;
19593;SDS011;9944;48.240;16.478;2024-02-21T14:20:31;1.92;;;0.73;;
19593;SDS011;9944;48.240;16.478;2024-02-21T14:24:36;1.08;;;0.75;;
19593;SDS011;9944;48.240;16.478;2024-02-21T14:28:39;1.95;;;0.88;;
19593;SDS011;9944;48.240;16.478;2024-02-21T14:32:43;3.17;;;0.90;;
19593;SDS011;9944;48.240;16.478;2024-02-21T14:36:48;3.25;;;0.90;;
19593;SDS011;9944;48.240;16.478;2024-02-21T14:40:52;0.90;;;0.60;;
19593;SDS011;9944;48.240;16.478;2024-02-21T14:44:56;1.20;;;0.80;;
19593;SDS011;9944;48.240;16.478;2024-02-21T14:49:05;2.28;;;1.15;;
19593;SDS011;9944;48.240;16.478;2024-02-21T14:53:08;2.03;;;1.00;;
19593;SDS011;9944;48.240;16.478;2024-02-21T14:57:13;1.63;;;0.73;;
19593;SDS011;9944;48.240;16.478;2024-02-21T15:01:17;3.03;;;0.95;;
19593;SDS011;9944;48.240;16.478;2024-02-21T15:05:20;1.08;;;0.82;;
19593;SDS011;9944;48.240;16.478;2024-02-21T15:09:45;1.52;;;0.90;;
19593;SDS011;9944;48.240;16.478;2024-02-21T15:14:09;3.53;;;1.33;;
19593;SDS011;9944;48.240;16.478;2024-02-21T15:18:33;3.35;;;1.45;;
19593;SDS011;9944;48.240;16.478;2024-02-21T15:22:59;4.00;;;1.30;;
19593;SDS011;9944;48.240;16.478;2024-02-21T15:27:27;2.92;;;1.05;;
19593;SDS011;9944;48.240;16.478;2024-02-21T15:31:51;1.55;;;0.95;;
19593;SDS011;9944;48.240;16.478;2024-02-21T15:36:15;3.20;;;1.00;;
19593;SDS011;9944;48.240;16.478;2024-02-21T15:40:38;4.72;;;1.10;;
19593;SDS011;9944;48.240;16.478;2024-02-21T15:45:02;2.22;;;0.90;;
19593;SDS011;9944;48.240;16.478;2024-02-21T15:49:28;1.85;;;1.30;;
19593;SDS011;9944;48.240;16.478;2024-02-21T15:53:52;3.53;;;1.50;;
19593;SDS011;9944;48.240;16.478;2024-02-21T15:58:15;4.35;;;1.40;;
19593;SDS011;9944;48.240;16.478;2024-02-21T16:02:41;2.78;;;1.13;;
19593;SDS011;9944;48.240;16.478;2024-02-21T16:07:06;2.85;;;1.20;;
19593;SDS011;9944;48.240;16.478;2024-02-21T16:11:30;2.08;;;1.08;;
19593;SDS011;9944;48.240;16.478;2024-02-21T16:15:53;4.30;;;1.52;;
19593;SDS011;9944;48.240;16.478;2024-02-21T16:20:17;2.15;;;1.38;;
19593;SDS011;9944;48.240;16.478;2024-02-21T16:24:42;4.25;;;1.20;;
19593;SDS011;9944;48.240;16.478;2024-02-21T16:29:05;3.70;;;1.30;;
19593;SDS011;9944;48.240;16.478;2024-02-21T16:33:29;6.43;;;1.48;;
19593;SDS011;9944;48.240;16.478;2024-02-21T16:37:53;2.55;;;1.48;;
19593;SDS011;9944;48.240;16.478;2024-02-21T16:42:18;6.60;;;1.35;;
19593;SDS011;9944;48.240;16.478;2024-02-21T16:46:41;1.90;;;1.25;;
19593;SDS011;9944;48.240;16.478;2024-02-21T16:51:03;2.55;;;1.40;;
19593;SDS011;9944;48.240;16.478;2024-02-21T16:55:28;3.20;;;1.50;;
19593;SDS011;9944;48.240;16.478;2024-02-21T16:59:56;2.20;;;1.33;;
19593;SDS011;9944;48.240;16.478;2024-02-21T17:04:20;4.45;;;1.40;;
19593;SDS011;9944;48.240;16.478;2024-02-21T17:08:44;4.00;;;1.50;;
19593;SDS011;9944;48.240;16.478;2024-02-21T17:13:07;4.03;;;1.60;;
19593;SDS011;9944;48.240;16.478;2024-02-21T17:17:33;3.70;;;1.40;;
19593;SDS011;9944;48.240;16.478;2024-02-21T17:21:57;6.22;;;1.77;;
19593;SDS011;9944;48.240;16.478;2024-02-21T17:26:20;2.25;;;1.58;;
19593;SDS011;9944;48.240;16.478;2024-02-21T17:30:44;2.58;;;1.60;;
19593;SDS011;9944;48.240;16.478;2024-02-21T17:34:50;2.25;;;1.50;;
19593;SDS011;9944;48.240;16.478;2024-02-21T17:38:54;4.40;;;1.80;;
19593;SDS011;9944;48.240;16.478;2024-02-21T17:42:57;3.10;;;1.73;;
19593;SDS011;9944;48.240;16.478;2024-02-21T17:47:01;3.53;;;1.90;;
19593;SDS011;9944;48.240;16.478;2024-02-21T17:51:13;4.07;;;2.10;;
19593;SDS011;9944;48.240;16.478;2024-02-21T17:55:29;5.18;;;2.20;;
19593;SDS011;9944;48.240;16.478;2024-02-21T17:59:32;7.30;;;2.50;;
19593;SDS011;9944;48.240;16.478;2024-02-21T18:03:36;3.72;;;2.05;;
19593;SDS011;9944;48.240;16.478;2024-02-21T18:07:40;4.70;;;2.63;;
19593;SDS011;9944;48.240;16.478;2024-02-21T18:11:44;7.05;;;3.00;;
19593;SDS011;9944;48.240;16.478;2024-02-21T18:15:48;5.10;;;2.90;;
19593;SDS011;9944;48.240;16.478;2024-02-21T18:19:51;7.53;;;3.45;;
19593;SDS011;9944;48.240;16.478;2024-02-21T18:23:56;7.28;;;2.60;;
19593;SDS011;9944;48.240;16.478;2024-02-21T18:27:59;6.07;;;2.50;;
19593;SDS011;9944;48.240;16.478;2024-02-21T18:32:03;5.63;;;2.85;;
19593;SDS011;9944;48.240;16.478;2024-02-21T18:36:07;7.00;;;3.17;;
19593;SDS011;9944;48.240;16.478;2024-02-21T18:40:11;4.07;;;2.33;;
19593;SDS011;9944;48.240;16.478;2024-02-21T18:44:16;5.53;;;2.88;;
19593;SDS011;9944;48.240;16.478;2024-02-21T18:48:20;4.82;;;2.17;;
19593;SDS011;9944;48.240;16.478;2024-02-21T18:52:23;5.40;;;2.88;;
19593;SDS011;9944;48.240;16.478;2024-02-21T18:56:28;6.13;;;3.40;;
19593;SDS011;9944;48.240;16.478;2024-02-21T19:00:31;5.07;;;2.75;;
19593;SDS011;9944;48.240;16.478;2024-02-21T19:04:35;6.15;;;3.42;;
19593;SDS011;9944;48.240;16.478;2024-02-21T19:08:39;7.82;;;3.88;;
19593;SDS011;9944;48.240;16.478;2024-02-21T19:12:43;6.93;;;3.50;;
19593;SDS011;9944;48.240;16.478;2024-02-21T19:16:47;6.57;;;3.35;;
19593;SDS011;9944;48.240;16.478;2024-02-21T19:20:50;6.22;;;3.63;;
19593;SDS011;9944;48.240;16.478;2024-02-21T19:24:54;7.03;;;3.40;;
19593;SDS011;9944;48.240;16.478;2024-02-21T19:28:59;6.53;;;3.70;;
19593;SDS011;9944;48.240;16.478;2024-02-21T19:33:02;9.52;;;4.15;;
19593;SDS011;9944;48.240;16.478;2024-02-21T19:37:06;5.57;;;3.50;;
19593;SDS011;9944;48.240;16.478;2024-02-21T19:41:09;6.80;;;3.33;;
19593;SDS011;9944;48.240;16.478;2024-02-21T19:45:14;6.05;;;3.67;;
19593;SDS011;9944;48.240;16.478;2024-02-21T19:49:17;7.43;;;3.78;;
19593;SDS011;9944;48.240;16.478;2024-02-21T19:53:21;8.63;;;3.40;;
19593;SDS011;9944;48.240;16.478;2024-02-21T19:57:24;6.88;;;3.40;;
19593;SDS011;9944;48.240;16.478;2024-02-21T20:01:29;5.40;;;3.47;;
19593;SDS011;9944;48.240;16.478;2024-02-21T20:05:32;8.57;;;3.60;;
19593;SDS011;9944;48.240;16.478;2024-02-21T20:09:36;6.05;;;3.13;;
19593;SDS011;9944;48.240;16.478;2024-02-21T20:13:39;4.20;;;3.45;;
19593;SDS011;9944;48.240;16.478;2024-02-21T20:17:45;6.20;;;2.90;;
19593;SDS011;9944;48.240;16.478;2024-02-21T20:21:49;8.95;;;3.08;;
19593;SDS011;9944;48.240;16.478;2024-02-21T20:25:52;3.67;;;2.45;;
19593;SDS011;9944;48.240;16.478;2024-02-21T20:29:57;3.85;;;2.42;;
19593;SDS011;9944;48.240;16.478;2024-02-21T20:34:01;6.57;;;2.70;;
19593;SDS011;9944;48.240;16.478;2024-02-21T20:38:05;7.78;;;2.35;;
19593;SDS011;9944;48.240;16.478;2024-02-21T20:42:08;4.88;;;3.03;;
19593;SDS011;9944;48.240;16.478;2024-02-21T20:46:14;8.23;;;3.10;;
19593;SDS011;9944;48.240;16.478;2024-02-21T20:50:19;4.82;;;2.95;;
19593;SDS011;9944;48.240;16.478;2024-02-21T20:54:23;5.32;;;2.92;;
19593;SDS011;9944;48.240;16.478;2024-02-21T20:58:26;5.07;;;2.35;;
19593;SDS011;9944;48.240;16.478;2024-02-21T21:02:30;4.07;;;2.35;;
19593;SDS011;9944;48.240;16.478;2024-02-21T21:06:34;5.22;;;2.70;;
19593;SDS011;9944;48.240;16.478;2024-02-21T21:10:38;6.68;;;2.60;;
19593;SDS011;9944;48.240;16.478;2024-02-21T21:14:41;4.30;;;2.67;;
19593;SDS011;9944;48.240;16.478;2024-02-21T21:18:44;5.07;;;3.22;;
19593;SDS011;9944;48.240;16.478;2024-02-21T21:22:49;5.60;;;3.45;;
19593;SDS011;9944;48.240;16.478;2024-02-21T21:27:13;5.40;;;2.88;;
19593;SDS011;9944;48.240;16.478;2024-02-21T21:31:18;4.85;;;2.78;;
19593;SDS011;9944;48.240;16.478;2024-02-21T21:35:22;3.92;;;2.50;;
19593;SDS011;9944;48.240;16.478;2024-02-21T21:39:29;7.10;;;2.60;;
19593;SDS011;9944;48.240;16.478;2024-02-21T21:43:33;4.50;;;2.20;;
19593;SDS011;9944;48.240;16.478;2024-02-21T21:47:41;4.32;;;2.33;;
19593;SDS011;9944;48.240;16.478;2024-02-21T21:51:44;3.83;;;2.10;;
19593;SDS011;9944;48.240;16.478;2024-02-21T21:55:51;4.10;;;2.63;;
19593;SDS011;9944;48.240;16.478;2024-02-21T21:59:55;3.60;;;2.30;;
19593;SDS011;9944;48.240;16.478;2024-02-21T22:03:58;3.72;;;2.40;;
19593;SDS011;9944;48.240;16.478;2024-02-21T22:08:02;4.63;;;2.88;;
19593;SDS011;9944;48.240;16.478;2024-02-21T22:12:07;8.23;;;2.90;;
19593;SDS011;9944;48.240;16.478;2024-02-21T22:16:11;4.07;;;2.85;;
19593;SDS011;9944;48.240;16.478;2024-02-21T22:20:15;5.95;;;3.05;;
19593;SDS011;9944;48.240;16.478;2024-02-21T22:24:24;4.60;;;2.72;;
19593;SDS011;9944;48.240;16.478;2024-02-21T22:28:29;5.10;;;3.00;;
19593;SDS011;9944;48.240;16.478;2024-02-21T22:32:32;3.40;;;2.53;;
19593;SDS011;9944;48.240;16.478;2024-02-21T22:36:36;3.55;;;2.63;;
19593;SDS011;9944;48.240;16.478;2024-02-21T22:40:39;4.78;;;2.80;;
19593;SDS011;9944;48.240;16.478;2024-02-21T22:44:44;4.68;;;2.45;;
19593;SDS011;9944;48.240;16.478;2024-02-21T22:48:48;4.45;;;2.90;;
19593;SDS011;9944;48.240;16.478;2024-02-21T22:52:52;6.07;;;3.58;;
19593;SDS011;9944;48.240;16.478;2024-02-21T22:56:57;7.20;;;4.00;;
19593;SDS011;9944;48.240;16.478;2024-02-21T23:01:02;9.27;;;4.40;;
19593;SDS011;9944;48.240;16.478;2024-02-21T23:05:06;9.52;;;5.93;;
19593;SDS011;9944;48.240;16.478;2024-02-21T23:09:10;8.60;;;5.15;;
19593;SDS011;9944;48.240;16.478;2024-02-21T23:13:13;9.55;;;5.28;;
19593;SDS011;9944;48.240;16.478;2024-02-21T23:17:18;11.73;;;5.15;;
19593;SDS011;9944;48.240;16.478;2024-02-21T23:21:23;10.38;;;4.97;;
19593;SDS011;9944;48.240;16.478;2024-02-21T23:25:26;9.13;;;4.40;;
19593;SDS011;9944;48.240;16.478;2024-02-21T23:29:29;6.68;;;4.53;;
19593;SDS011;9944;48.240;16.478;2024-02-21T23:33:34;7.15;;;3.38;;
19593;SDS011;9944;48.240;16.478;2024-02-21T23:37:38;4.50;;;3.03;;
19593;SDS011;9944;48.240;16.478;2024-02-21T23:41:41;5.13;;;3.10;;
19593;SDS011;9944;48.240;16.478;2024-02-21T23:45:45;8.13;;;3.40;;
19593;SDS011;9944;48.240;16.478;2024-02-21T23:49:50;6.40;;;3.47;;
19593;SDS011;9944;48.240;16.478;2024-02-21T23:53:54;5.47;;;3.40;;
19593;SDS011;9944;48.240;16.478;2024-02-21T23:57:58;6.82;;;3.03;;
